BGJNBGKK

Guest
Details From BGJN - Ilulissat/Jakobshavn
To BGKK - Kulusuk
Flight Number -
Tags generated
Created
Modified
Stats Distance 472 nm / 874 km
Max Altitude 35,000 ft / 10,668 m
Waypoints 9
Social Downloads 1
Likes 0
Share VATSIM

Download

Looking for another format? Having issues loading an existing format? Contact us
Advertisement - Login to hide

Notes

Basic altitude profile: - Ascent Rate: 2500ft/min - Ascent Speed: 250kts - Cruise Altitude: 12000ft - Cruise Speed: 420kts - Descent Rate: 1500ft/min - Descent Speed: 250kts Options: - Use NATs: yes - Use PACOTS: yes - Use low airways: yes - Use high airways: yes

Route

BGJN JV W24 SUKAK GANGI W28 DA BGKK

ID Type Via Altitude Latitude Longitude Leg Dist Tot Dist Heading (true) Name
O BGJN APT - 0 ft / 0 m 69.24444˚ -51.06222˚ - 0 nm - Ilulissat/Jakobshavn
JV NDB - 100 ft / 30 m 69.24142˚ -51.07237˚ 0 nm 0 nm 230° / 230° ILULISSAT NDB
KUNUK FIX W24 (AWY-LO) 15,900 ft / 4,846 m 68.50667˚ -50.87278˚ 44 nm 44 nm 174° / 175° -
SUKAK FIX W24 (AWY-LO) 19,500 ft / 5,944 m 66.94250˚ -50.48917˚ 94 nm 138 nm 175° / 175° -
GANGI FIX - 35,000 ft / 10,668 m 66.89444˚ -49.68083˚ 19 nm 158 nm 98° / 99° -
PEVAR FIX W28 (AWY-LO) 19,500 ft / 5,944 m 66.69917˚ -46.93972˚ 65 nm 224 nm 99° / 102° -
MASIK FIX W28 (AWY-LO) 15,000 ft / 4,572 m 65.96778˚ -39.99528˚ 172 nm 397 nm 102° / 108° -
DA NDB W28 (AWY-LO) 8,000 ft / 2,438 m 65.57056˚ -37.20694˚ 72 nm 469 nm 108° / 110° KULUSUK NDB
O BGKK APT - 0 ft / 0 m 65.57361˚ -37.12361˚ 2 nm 471 nm 85° / 85° Kulusuk

Altitude Profile

Advertisement - Login to hide

Weather


0- 5 10 15 20 25 30 35+ Temperature / ° C

Clouds and Precipitation
Forecast for 2017-12-11 06:00 UTC. Updated 42 minutes ago

Ground ~20,000 ft ~40,000 ft Winds

BGJN

Details ICAO BGJN (JAV)
Name Ilulissat/Jakobshavn
Region Greenland
Timezone America/Godthab (UTC-3.0)
Stats Elevation 95 ft / 29 m (AMSL)
Location 69.244438° -51.062221°
Runways 1
Magnetic Variation 31.090° W

METAR

BGJN 110350Z AUTO 18021KT 3700NDV -FZRA FEW008/// SCT021/// BKN032/// OVC046/// M03/M04 Q1000

Decode

TAF

Not found

Departure Runways

ID Width Length Bearing (true) Bearing (mag) Surface Threshold Offset Overrun Length
08 98 ft / 30 m 2,773 ft / 845 m 34.99° 66.08° Asphalt 0 ft / 0 m 0 ft / 0 m
26 98 ft / 30 m 2,773 ft / 845 m 215.01° 246.10° Asphalt 0 ft / 0 m 0 ft / 0 m

BGKK

Details ICAO BGKK
Name Kulusuk
Region Greenland
Timezone America/Godthab (UTC-3.0)
Stats Elevation 114 ft / 35 m (AMSL)
Location 65.573608° -37.123608°
Runways 1
Magnetic Variation 22.322° W

METAR

BGKK 110350Z AUTO VRB03KT 9999NDV OVC140/// M04/M07 Q1004

Decode

TAF

Not found

Destination Runways

ID Width Length Bearing (true) Bearing (mag) Surface Threshold Offset Overrun Length
11 98 ft / 30 m 3,956 ft / 1,206 m 83.99° 106.31° Gravel 0 ft / 0 m 0 ft / 0 m
29 98 ft / 30 m 3,956 ft / 1,206 m 264.01° 286.33° Gravel 0 ft / 0 m 0 ft / 0 m